Time;durP1;ratioP1;P1;durP2;ratioP2;P2;SDS_P1;SDS_P2;PMS_P1;PMS_P2;Temp;Humidity;BMP_temperature;BMP_pressure;BME280_temperature;BME280_humidity;BME280_pressure;Samples;Min_cycle;Max_cycle;Signal;HPM_P1;HPM_P2
2024/04/26 00:01:23;;;;;;;;;18.00;14.00;;;;;1.76;86.77;99816.02;112784;235;41426;-58
2024/04/26 00:04:04;;;;;;;;;18.00;14.00;;;;;1.74;86.85;99817.80;112476;232;42031;-58
2024/04/26 00:06:43;;;;;;;;;19.00;15.00;;;;;1.72;86.82;99818.73;112805;232;41062;-58
2024/04/26 00:09:23;;;;;;;;;19.00;15.00;;;;;1.70;86.93;99815.16;112417;232;169242;-55
2024/04/26 00:12:03;;;;;;;;;17.67;13.67;;;;;1.66;87.07;99818.77;112425;232;40252;-55
2024/04/26 00:14:41;;;;;;;;;18.33;14.33;;;;;1.60;87.11;99820.80;112298;236;169315;-58
2024/04/26 00:17:19;;;;;;;;;15.00;12.00;;;;;1.55;87.16;99824.64;112422;232;41973;-59
2024/04/26 00:19:58;;;;;;;;;19.00;14.00;;;;;1.50;87.17;99827.08;112306;232;169414;-58
2024/04/26 00:22:33;;;;;;;;;20.50;15.50;;;;;1.46;87.10;99826.98;112766;231;40578;-58
2024/04/26 00:25:08;;;;;;;;;20.75;16.00;;;;;1.43;87.19;99829.37;112754;231;39982;-58
2024/04/26 00:27:45;;;;;;;;;20.67;16.00;;;;;1.36;87.27;99827.55;112311;232;169194;-58
2024/04/26 00:30:23;;;;;;;;;18.25;13.00;;;;;1.33;87.32;99828.73;112499;236;39572;-56
2024/04/26 00:33:00;;;;;;;;;16.25;13.25;;;;;1.28;87.44;99825.81;112509;231;169902;-57
2024/04/26 00:35:39;;;;;;;;;21.00;15.00;;;;;1.23;87.40;99828.30;112785;231;40585;-59
2024/04/26 00:38:22;;;;;;;;;19.00;15.00;;;;;1.18;87.47;99827.78;112646;231;169557;-59
2024/04/26 00:40:58;;;;;;;;;18.33;15.00;;;;;1.15;87.40;99830.26;112791;231;40756;-59
2024/04/26 00:43:35;;;;;;;;;18.00;14.50;;;;;1.12;87.56;99831.24;112695;232;170044;-57
2024/04/26 00:46:09;;;;;;;;;22.00;16.00;;;;;1.11;87.65;99834.86;112777;231;40532;-56
2024/04/26 00:48:47;;;;;;;;;27.00;18.33;;;;;1.10;87.63;99835.67;112796;235;40432;-58
2024/04/26 00:51:31;;;;;;;;;24.00;16.00;;;;;1.07;87.69;99833.09;112607;231;169558;-58
2024/04/26 00:54:09;;;;;;;;;20.33;15.33;;;;;1.06;87.75;99835.68;112783;235;40266;-57
2024/04/26 00:56:53;;;;;;;;;22.00;14.00;;;;;1.05;87.88;99834.73;112641;231;169335;-56
2024/04/26 00:59:32;;;;;;;;;17.00;14.00;;;;;1.02;87.92;99830.92;112805;232;40068;-59
2024/04/26 01:02:07;;;;;;;;;20.25;16.00;;;;;1.04;87.92;99836.27;112630;235;169352;-59
2024/04/26 01:04:44;;;;;;;;;20.67;15.67;;;;;1.03;87.84;99835.23;112797;231;39797;-59
2024/04/26 01:07:24;;;;;;;;;20.00;15.00;;;;;1.01;87.93;99837.08;112767;235;40845;-59
2024/04/26 01:10:02;;;;;;;;;21.00;14.00;;;;;0.96;87.99;99843.59;112475;230;41359;-56
2024/04/26 01:12:47;;;;;;;;;18.00;14.00;;;;;0.93;88.11;99843.45;112899;230;40133;-56
2024/04/26 01:15:28;;;;;;;;;20.25;17.00;;;;;0.92;87.95;99847.65;112482;232;169409;-59
2024/04/26 01:18:05;;;;;;;;;26.00;17.00;;;;;0.97;88.09;99848.94;112519;236;40671;-59
2024/04/26 01:20:39;;;;;;;;;21.00;17.00;;;;;1.07;88.29;99850.88;112484;235;169472;-56
2024/04/26 01:23:21;;;;;;;;;19.00;15.00;;;;;1.11;88.35;99846.60;112850;231;40432;-56
2024/04/26 01:26:00;;;;;;;;;23.00;17.00;;;;;1.13;88.38;99845.89;112711;231;169381;-56
2024/04/26 01:28:45;;;;;;;;;22.00;17.00;;;;;1.09;88.33;99845.66;112837;231;41030;-57
2024/04/26 01:31:30;;;;;;;;;25.50;16.00;;;;;1.04;88.39;99847.73;112813;232;41587;-56
2024/04/26 01:34:10;;;;;;;;;17.67;15.00;;;;;1.01;88.43;99849.10;112512;235;41041;-58
2024/04/26 01:36:47;;;;;;;;;22.00;16.00;;;;;0.98;88.36;99849.05;112815;232;41686;-58
2024/04/26 01:39:28;;;;;;;;;22.00;17.00;;;;;0.96;88.41;99848.34;112604;235;169244;-56
2024/04/26 01:42:05;;;;;;;;;23.50;17.50;;;;;0.90;88.39;99851.38;112777;232;40524;-56
2024/04/26 01:44:41;;;;;;;;;20.50;16.00;;;;;0.86;88.35;99856.85;112518;232;170353;-56
2024/04/26 01:47:16;;;;;;;;;22.00;16.00;;;;;0.83;88.36;99855.55;112486;236;40809;-56
2024/04/26 01:49:51;;;;;;;;;21.00;16.00;;;;;0.84;88.35;99854.45;112368;232;169896;-56
2024/04/26 01:52:26;;;;;;;;;20.67;14.33;;;;;0.85;88.49;99854.88;112773;235;41695;-56
2024/04/26 01:55:05;;;;;;;;;18.00;15.00;;;;;0.87;88.51;99851.98;112801;232;39845;-56
2024/04/26 01:57:41;;;;;;;;;24.50;18.50;;;;;0.88;88.55;99856.17;112391;232;169083;-56
2024/04/26 02:00:17;;;;;;;;;17.50;14.00;;;;;0.91;88.63;99863.51;112532;236;39867;-56
2024/04/26 02:02:56;;;;;;;;;22.00;16.00;;;;;0.90;88.72;99865.55;112404;232;169213;-56
2024/04/26 02:05:33;;;;;;;;;22.50;17.00;;;;;0.90;88.61;99868.98;112559;232;41129;-58
2024/04/26 02:08:07;;;;;;;;;20.00;16.00;;;;;1.02;88.96;99873.34;112427;232;170102;-58
2024/04/26 02:10:46;;;;;;;;;26.50;20.00;;;;;1.16;89.23;99873.58;112862;231;40400;-56
2024/04/26 02:13:20;;;;;;;;;25.00;18.00;;;;;1.19;89.27;99872.40;112783;232;41840;-56
2024/04/26 02:15:58;;;;;;;;;24.00;16.00;;;;;1.25;89.40;99875.77;112374;232;169167;-57
2024/04/26 02:18:36;;;;;;;;;20.75;16.75;;;;;1.29;89.41;99874.32;112575;232;39971;-57
2024/04/26 02:21:13;;;;;;;;;25.33;19.00;;;;;1.29;89.35;99874.88;112327;236;169198;-58
2024/04/26 02:23:53;;;;;;;;;23.00;18.50;;;;;1.26;89.26;99878.90;112484;232;41225;-58
2024/04/26 02:26:35;;;;;;;;;22.00;16.00;;;;;1.23;89.18;99881.13;112340;232;169461;-58
2024/04/26 02:29:11;;;;;;;;;29.25;20.50;;;;;1.23;89.17;99883.11;112512;236;40360;-56
2024/04/26 02:31:56;;;;;;;;;18.00;14.00;;;;;1.24;89.22;99881.23;112382;235;169504;-56
2024/04/26 02:34:36;;;;;;;;;28.00;22.00;;;;;1.22;89.26;99879.80;112745;231;39952;-57
2024/04/26 02:37:10;;;;;;;;;25.00;18.00;;;;;1.27;89.30;99885.48;112810;232;42131;-58
2024/04/26 02:39:45;;;;;;;;;23.00;17.00;;;;;1.31;89.44;99888.30;112350;235;169405;-56
2024/04/26 02:42:24;;;;;;;;;22.00;18.00;;;;;1.29;89.32;99891.05;112491;232;40415;-56
2024/04/26 02:45:05;;;;;;;;;19.00;15.00;;;;;1.25;89.27;99896.74;112370;232;169175;-57
2024/04/26 02:47:45;;;;;;;;;23.00;19.00;;;;;1.19;89.30;99896.03;112499;236;40355;-58
2024/04/26 02:50:21;;;;;;;;;19.00;15.00;;;;;1.12;89.23;99896.11;112431;235;169587;-58
2024/04/26 02:52:55;;;;;;;;;19.25;15.25;;;;;1.04;89.16;99903.60;112781;231;40886;-59
2024/04/26 02:55:32;;;;;;;;;21.50;17.00;;;;;0.96;89.17;99906.63;112812;235;40083;-58
2024/04/26 02:58:08;;;;;;;;;20.50;15.50;;;;;0.89;89.14;99905.86;112489;234;40293;-59
2024/04/26 03:00:48;;;;;;;;;26.50;17.75;;;;;0.87;89.23;99905.69;112845;232;40247;-58
2024/04/26 03:03:22;;;;;;;;;25.33;19.00;;;;;0.85;89.24;99913.44;112457;232;169541;-58
2024/04/26 03:06:01;;;;;;;;;19.25;15.00;;;;;0.81;89.29;99909.26;112484;232;40051;-55
2024/04/26 03:08:41;;;;;;;;;19.00;14.00;;;;;0.78;89.17;99914.84;112354;232;170055;-56
2024/04/26 03:11:22;;;;;;;;;18.00;16.00;;;;;0.76;89.36;99918.41;112492;232;40083;-56
2024/04/26 03:13:56;;;;;;;;;24.33;17.67;;;;;0.76;89.32;99919.13;112447;231;169629;-56
2024/04/26 03:16:39;;;;;;;;;20.00;15.00;;;;;0.74;89.35;99918.84;112751;231;39780;-56
2024/04/26 03:19:21;;;;;;;;;20.50;16.25;;;;;0.73;89.38;99923.01;112804;232;41497;-58
2024/04/26 03:21:57;;;;;;;;;21.00;16.00;;;;;0.71;89.40;99920.89;112300;235;169561;-58
2024/04/26 03:24:38;;;;;;;;;19.50;16.00;;;;;0.73;89.40;99927.60;112522;232;40197;-55
2024/04/26 03:27:12;;;;;;;;;28.00;19.00;;;;;0.72;89.60;99927.67;112334;232;169600;-55
2024/04/26 03:29:48;;;;;;;;;30.00;21.00;;;;;0.75;89.67;99930.40;112466;232;40239;-58
2024/04/26 03:32:32;;;;;;;;;27.50;20.00;;;;;0.77;89.77;99928.28;112443;232;169955;-60
2024/04/26 03:35:09;;;;;;;;;29.00;18.00;;;;;0.77;89.74;99930.75;112797;232;40661;-58
2024/04/26 03:37:42;;;;;;;;;26.00;20.00;;;;;0.80;89.76;99930.50;112629;232;170209;-59
2024/04/26 03:40:18;;;;;;;;;32.50;21.00;;;;;0.84;89.85;99927.66;112441;236;41510;-56
2024/04/26 03:42:59;;;;;;;;;24.67;20.00;;;;;0.89;89.81;99933.04;112521;232;40834;-56
2024/04/26 03:45:34;;;;;;;;;20.67;16.00;;;;;0.90;89.89;99936.35;112317;236;169703;-58
2024/04/26 03:48:10;;;;;;;;;26.75;19.25;;;;;0.95;89.99;99934.58;112486;232;40471;-58
2024/04/26 03:50:50;;;;;;;;;22.50;18.00;;;;;1.01;90.04;99931.04;112344;236;169973;-56
2024/04/26 03:53:28;;;;;;;;;26.50;21.50;;;;;1.08;90.05;99928.08;112497;236;41162;-56
2024/04/26 03:56:01;;;;;;;;;26.33;20.33;;;;;1.12;90.12;99929.80;112416;232;170174;-59
2024/04/26 03:58:40;;;;;;;;;30.33;21.67;;;;;1.25;90.16;99931.46;112807;235;40349;-56
2024/04/26 04:01:20;;;;;;;;;27.00;19.00;;;;;2.17;90.62;99929.23;112465;233;40595;-56
2024/04/26 04:03:54;;;;;;;;;28.00;22.00;;;;;3.24;90.12;99925.48;112344;234;169747;-56
2024/04/26 04:06:29;;;;;;;;;27.00;21.00;;;;;3.39;89.61;99924.36;112484;236;41836;-56
2024/04/26 04:09:06;;;;;;;;;30.00;22.00;;;;;3.40;89.17;99927.10;112259;236;169497;-58
2024/04/26 04:11:47;;;;;;;;;27.00;20.00;;;;;3.27;88.98;99922.93;112436;232;40248;-59
2024/04/26 04:14:25;;;;;;;;;33.50;27.00;;;;;3.47;89.25;99919.77;112413;235;169429;-56
2024/04/26 04:17:01;;;;;;;;;26.50;20.00;;;;;3.74;88.74;99925.84;112752;232;41023;-56
2024/04/26 04:19:44;;;;;;;;;37.33;25.67;;;;;3.70;88.68;99924.38;112813;232;41695;-57
2024/04/26 04:22:20;;;;;;;;;33.00;24.00;;;;;3.72;88.87;99926.48;112457;233;39952;-57
2024/04/26 04:24:55;;;;;;;;;38.67;29.33;;;;;4.00;88.99;99932.04;112794;232;40778;-56
2024/04/26 04:27:34;;;;;;;;;22.00;18.00;;;;;4.66;88.75;99930.27;112626;231;170132;-56
2024/04/26 04:30:10;;;;;;;;;37.00;29.00;;;;;5.58;88.50;99929.39;112845;232;41680;-56
2024/04/26 04:32:51;;;;;;;;;38.33;30.33;;;;;6.41;87.87;99932.06;112462;232;170659;-56
2024/04/26 04:35:31;;;;;;;;;35.67;27.33;;;;;7.41;86.92;99927.15;112457;232;40040;-58
2024/04/26 04:38:11;;;;;;;;;36.00;27.00;;;;;7.43;85.98;99930.55;112376;232;195055;-58
2024/04/26 04:40:51;;;;;;;;;34.50;26.50;;;;;7.54;85.45;99933.26;112852;231;40581;-56
2024/04/26 04:43:30;;;;;;;;;38.33;28.67;;;;;8.74;86.03;99931.64;112848;235;40512;-58
2024/04/26 04:46:08;;;;;;;;;37.33;30.00;;;;;10.38;85.02;99930.45;112412;232;40542;-58
2024/04/26 04:48:44;;;;;;;;;42.00;31.00;;;;;12.00;83.61;99929.57;112473;236;40313;-56
2024/04/26 04:51:30;;;;;;;;;40.50;31.50;;;;;13.48;80.73;99928.60;112245;234;170310;-57
2024/04/26 04:54:09;;;;;;;;;39.00;31.00;;;;;14.61;78.15;99932.09;112794;232;41157;-57
2024/04/26 04:56:44;;;;;;;;;39.00;31.00;;;;;15.53;76.46;99933.58;112491;232;170220;-57
2024/04/26 04:59:22;;;;;;;;;42.00;31.67;;;;;16.05;74.43;99932.94;112684;235;40622;-59
2024/04/26 05:01:58;;;;;;;;;35.33;28.33;;;;;16.57;72.67;99933.34;112584;235;171305;-59
2024/04/26 05:04:33;;;;;;;;;36.67;29.33;;;;;16.86;70.35;99937.62;112595;235;40597;-59
2024/04/26 05:07:11;;;;;;;;;36.00;28.50;;;;;16.79;68.27;99936.77;112833;232;40029;-59
2024/04/26 05:09:54;;;;;;;;;35.33;28.67;;;;;16.10;67.67;99940.48;112319;235;170125;-59
2024/04/26 05:12:36;;;;;;;;;36.00;29.67;;;;;16.21;66.48;99944.77;112829;232;40438;-59
2024/04/26 05:15:10;;;;;;;;;35.33;28.33;;;;;16.60;64.99;99943.99;112393;235;170169;-57
2024/04/26 05:17:48;;;;;;;;;37.00;29.00;;;;;16.84;64.75;99946.02;112720;232;40681;-57
2024/04/26 05:20:28;;;;;;;;;36.67;29.00;;;;;16.92;63.98;99946.98;112565;232;171011;-58
2024/04/26 05:23:07;;;;;;;;;38.00;30.33;;;;;17.14;62.63;99947.95;112678;235;40122;-57
2024/04/26 05:25:43;;;;;;;;;35.50;29.00;;;;;17.26;61.21;99949.46;112711;232;170220;-57
2024/04/26 05:28:19;;;;;;;;;37.50;29.00;;;;;17.61;61.28;99947.67;112621;232;40554;-57
2024/04/26 05:30:58;;;;;;;;;37.75;30.50;;;;;17.84;59.27;99945.35;112824;232;39733;-57
2024/04/26 05:33:38;;;;;;;;;35.50;29.50;;;;;18.35;58.94;99946.90;112453;232;170146;-58
2024/04/26 05:36:14;;;;;;;;;29.00;26.00;;;;;19.21;58.92;99951.02;112833;235;39966;-59
2024/04/26 05:38:49;;;;;;;;;37.33;31.00;;;;;20.18;57.38;99949.23;112539;235;170229;-59
2024/04/26 05:41:28;;;;;;;;;35.00;29.00;;;;;20.79;54.36;99956.90;112674;235;40431;-59
2024/04/26 05:44:04;;;;;;;;;38.00;31.00;;;;;21.19;52.88;99952.73;112626;232;170596;-58
2024/04/26 05:46:48;;;;;;;;;36.67;28.67;;;;;22.01;51.88;99952.88;112623;232;40795;-57
2024/04/26 05:49:33;;;;;;;;;38.00;31.00;;;;;22.48;51.06;99951.64;112804;235;40291;-57
2024/04/26 05:52:09;;;;;;;;;37.00;30.00;;;;;22.61;50.28;99951.46;112399;234;40838;-57
2024/04/26 05:54:47;;;;;;;;;34.25;28.50;;;;;23.21;48.80;99955.23;112398;236;42413;-57
2024/04/26 05:57:27;;;;;;;;;38.00;29.00;;;;;23.73;46.92;99955.40;112301;233;170302;-57
2024/04/26 06:00:02;;;;;;;;;34.75;29.75;;;;;23.87;44.79;99955.02;112792;232;40442;-57
2024/04/26 06:02:38;;;;;;;;;34.75;29.25;;;;;24.12;43.64;99959.98;112524;235;170228;-57
2024/04/26 06:05:23;;;;;;;;;32.00;28.00;;;;;24.34;43.89;99956.77;112702;232;41693;-59
2024/04/26 06:08:02;;;;;;;;;36.00;30.00;;;;;24.61;44.25;99959.53;112595;232;170398;-59
2024/04/26 06:10:39;;;;;;;;;36.00;30.00;;;;;25.19;42.49;99960.26;112502;234;40227;-57
2024/04/26 06:13:14;;;;;;;;;36.00;29.00;;;;;25.04;41.90;99960.95;112862;232;40823;-56
2024/04/26 06:15:51;;;;;;;;;30.50;26.00;;;;;25.67;40.49;99964.77;112441;232;170208;-59
2024/04/26 06:18:30;;;;;;;;;33.67;27.67;;;;;25.87;40.59;99963.92;112884;235;41817;-61
2024/04/26 06:21:08;;;;;;;;;35.00;30.00;;;;;25.77;40.01;99964.68;112516;235;170287;-60
2024/04/26 06:23:45;;;;;;;;;32.00;27.00;;;;;24.25;38.33;99970.86;112802;235;40222;-62
2024/04/26 06:26:24;;;;;;;;;36.00;29.00;;;;;22.26;38.79;99979.44;112636;232;170112;-61
2024/04/26 06:29:06;;;;;;;;;38.00;31.00;;;;;20.95;39.09;99979.27;112735;232;40427;-58
2024/04/26 06:31:50;;;;;;;;;34.00;28.00;;;;;19.78;39.94;99982.16;112792;232;40681;-57
2024/04/26 06:34:34;;;;;;;;;37.00;31.00;;;;;18.67;41.30;99993.23;112803;232;40894;-59
2024/04/26 06:37:10;;;;;;;;;37.00;30.00;;;;;17.95;41.61;99993.35;112767;232;40266;-60
2024/04/26 06:39:48;;;;;;;;;34.00;28.00;;;;;17.25;42.75;100002.95;112401;232;170151;-59
2024/04/26 06:42:28;;;;;;;;;32.00;27.25;;;;;16.66;43.38;100004.06;112809;235;40634;-59
2024/04/26 06:45:04;;;;;;;;;34.00;29.00;;;;;16.16;43.90;100009.38;112459;235;170059;-61
2024/04/26 06:47:43;;;;;;;;;35.67;28.33;;;;;16.05;44.87;100006.78;112729;232;40531;-61
2024/04/26 06:50:21;;;;;;;;;34.50;27.00;;;;;17.21;45.08;100004.12;111778;232;808928;-58
2024/04/26 06:53:03;;;;;;;;;32.00;27.00;;;;;17.24;44.95;100004.72;112661;235;40727;-57
2024/04/26 06:55:41;;;;;;;;;33.00;25.67;;;;;16.59;44.70;100006.73;112813;235;39792;-59
2024/04/26 06:58:21;;;;;;;;;32.33;27.00;;;;;16.10;45.15;100013.65;112547;232;39883;-61
2024/04/26 07:01:05;;;;;;;;;32.00;26.00;;;;;15.70;45.72;100015.48;112842;232;41365;-60
2024/04/26 07:03:49;;;;;;;;;27.33;22.67;;;;;15.28;46.16;100016.27;112615;231;170450;-58
2024/04/26 07:06:27;;;;;;;;;31.00;26.00;;;;;15.12;46.14;100018.54;112828;232;41931;-59
2024/04/26 07:09:03;;;;;;;;;31.00;25.67;;;;;15.12;46.60;100016.14;112421;235;170460;-60
2024/04/26 07:11:37;;;;;;;;;27.00;23.00;;;;;15.26;46.84;100018.89;112517;236;41372;-60
2024/04/26 07:14:15;;;;;;;;;31.50;25.00;;;;;15.66;47.29;100017.56;112218;234;171065;-58
2024/04/26 07:16:49;;;;;;;;;32.00;26.50;;;;;17.17;46.80;100017.31;112474;236;41208;-59
2024/04/26 07:19:27;;;;;;;;;37.00;29.00;;;;;18.69;45.64;100010.77;112487;232;40607;-57
2024/04/26 07:22:03;;;;;;;;;32.50;26.00;;;;;19.86;45.07;100010.96;112597;232;170548;-57
2024/04/26 07:24:41;;;;;;;;;33.00;27.00;;;;;21.16;43.85;100008.02;112776;232;40298;-58
2024/04/26 07:27:16;;;;;;;;;29.50;25.00;;;;;21.64;42.18;100007.31;112483;232;170448;-59
2024/04/26 07:29:51;;;;;;;;;31.50;25.00;;;;;21.27;41.69;100005.44;112437;232;40515;-56
2024/04/26 07:32:25;;;;;;;;;26.67;23.00;;;;;21.06;41.06;100006.88;112415;231;170428;-56
2024/04/26 07:35:02;;;;;;;;;22.00;20.00;;;;;20.87;40.77;100008.84;112740;231;41980;-58
2024/04/26 07:37:41;;;;;;;;;21.25;17.75;;;;;21.10;40.76;100008.09;112791;232;41729;-58
2024/04/26 07:40:17;;;;;;;;;23.00;19.25;;;;;21.38;40.67;100010.91;112385;232;39649;-59
2024/04/26 07:42:56;;;;;;;;;24.00;21.00;;;;;21.66;40.53;100011.67;112763;232;40275;-61
2024/04/26 07:45:38;;;;;;;;;21.00;17.00;;;;;22.35;40.26;100009.67;112604;231;170343;-59
2024/04/26 07:48:12;;;;;;;;;19.00;17.00;;;;;23.47;39.56;100011.04;112790;235;40476;-59
2024/04/26 07:50:50;;;;;;;;;17.75;16.00;;;;;24.19;38.13;100005.97;112472;232;170479;-56
2024/04/26 07:53:28;;;;;;;;;16.00;15.00;;;;;24.74;36.82;100004.53;112387;232;41562;-57
2024/04/26 07:56:05;;;;;;;;;15.00;14.00;;;;;24.86;37.45;100005.80;112341;232;170512;-55
2024/04/26 07:58:40;;;;;;;;;17.00;15.00;;;;;25.31;36.50;100004.70;112754;231;39749;-59
2024/04/26 08:01:18;;;;;;;;;15.33;14.00;;;;;25.46;35.62;100001.19;112766;232;40626;-58
2024/04/26 08:03:57;;;;;;;;;16.00;14.00;;;;;25.92;35.21;100009.02;112337;235;170897;-57
2024/04/26 08:06:40;;;;;;;;;15.00;13.00;;;;;26.08;34.88;100005.45;112440;232;40656;-58
2024/04/26 08:09:20;;;;;;;;;13.00;12.00;;;;;26.18;34.52;100006.30;112273;236;170376;-57
2024/04/26 08:11:55;;;;;;;;;13.00;11.00;;;;;26.34;34.22;100006.03;112414;232;39605;-57
2024/04/26 08:14:28;;;;;;;;;10.00;9.75;;;;;26.61;33.34;100007.91;112432;232;170652;-60
2024/04/26 08:17:07;;;;;;;;;12.00;11.00;;;;;26.72;33.42;100005.81;112797;231;39881;-61
2024/04/26 08:19:49;;;;;;;;;13.00;11.00;;;;;26.74;33.31;100006.34;112761;235;40043;-60
2024/04/26 08:22:35;;;;;;;;;11.00;8.75;;;;;26.79;32.28;100016.63;112439;233;40160;-60
2024/04/26 08:25:11;;;;;;;;;11.00;10.00;;;;;26.57;31.70;100012.19;112782;232;41605;-57
2024/04/26 08:27:49;;;;;;;;;11.00;9.00;;;;;26.46;31.70;100009.55;112604;231;170768;-57
2024/04/26 08:30:34;;;;;;;;;9.00;9.00;;;;;26.51;32.12;100010.14;112397;236;40295;-57
2024/04/26 08:33:09;;;;;;;;;10.00;9.00;;;;;26.28;31.62;100004.27;112215;232;170035;-57
2024/04/26 08:35:44;;;;;;;;;10.00;9.00;;;;;26.38;31.22;100008.41;112401;232;40367;-57
2024/04/26 08:38:20;;;;;;;;;8.00;8.00;;;;;26.65;31.06;100004.52;112204;232;170307;-59
2024/04/26 08:41:03;;;;;;;;;8.00;7.00;;;;;26.69;31.11;100004.33;112405;232;40480;-59
2024/04/26 08:43:43;;;;;;;;;7.25;7.00;;;;;26.57;31.14;100007.04;112443;232;42127;-57
2024/04/26 08:46:28;;;;;;;;;7.00;6.00;;;;;26.79;30.04;100001.00;112389;233;42042;-53
2024/04/26 08:49:06;;;;;;;;;9.00;8.00;;;;;26.89;29.27;99995.77;112366;232;41743;-56
2024/04/26 08:51:44;;;;;;;;;9.00;8.00;;;;;26.57;29.04;100005.14;112283;232;171006;-56
2024/04/26 08:54:25;;;;;;;;;6.75;6.00;;;;;26.21;28.19;100004.43;112360;236;40542;-60
2024/04/26 08:57:02;;;;;;;;;7.50;6.00;;;;;25.90;29.33;100001.79;112257;232;170035;-60
2024/04/26 08:59:39;;;;;;;;;7.00;6.00;;;;;25.95;28.70;99998.62;112386;236;40458;-58
2024/04/26 09:02:14;;;;;;;;;7.00;6.67;;;;;25.05;28.86;100006.24;112235;232;169844;-58
2024/04/26 09:04:56;;;;;;;;;7.00;7.00;;;;;24.18;29.71;100010.23;112417;236;41544;-58
2024/04/26 09:07:40;;;;;;;;;6.50;6.00;;;;;24.11;29.97;100011.72;112444;232;40640;-57
2024/04/26 09:10:18;;;;;;;;;7.00;6.00;;;;;24.18;30.28;100008.90;112273;232;169737;-58
2024/04/26 09:12:53;;;;;;;;;7.00;7.00;;;;;23.26;30.26;100012.27;112391;232;40444;-57
2024/04/26 09:15:29;;;;;;;;;9.00;8.00;;;;;22.25;30.21;100011.38;112294;236;169663;-57
2024/04/26 09:18:07;;;;;;;;;8.00;7.50;;;;;21.68;30.80;100009.02;112408;232;39899;-57
2024/04/26 09:20:42;;;;;;;;;9.00;8.00;;;;;21.16;31.27;100004.67;112301;232;169705;-56
2024/04/26 09:23:20;;;;;;;;;10.00;10.00;;;;;21.10;32.03;100004.60;112494;232;39975;-56
2024/04/26 09:26:09;;;;;;;;;9.33;8.33;;;;;21.25;31.95;99998.89;112330;236;170884;-59
2024/04/26 09:28:47;;;;;;;;;10.33;8.67;;;;;21.37;33.08;99997.35;112633;235;41688;-56
2024/04/26 09:31:30;;;;;;;;;10.00;9.00;;;;;21.50;32.87;99999.30;112809;232;41759;-57
2024/04/26 09:34:12;;;;;;;;;9.50;9.00;;;;;21.34;32.26;100005.57;112364;235;170807;-57
2024/04/26 09:36:53;;;;;;;;;13.67;12.00;;;;;21.04;32.50;100000.80;112517;236;40819;-56
2024/04/26 09:39:40;;;;;;;;;9.50;9.00;;;;;20.63;32.17;100004.73;112387;232;170189;-59
2024/04/26 09:42:21;;;;;;;;;8.00;7.50;;;;;20.21;32.25;99999.50;112497;232;41410;-58
2024/04/26 09:45:05;;;;;;;;;10.00;8.67;;;;;20.02;32.94;100002.75;112384;232;169618;-59
2024/04/26 09:47:42;;;;;;;;;9.00;8.00;;;;;19.68;32.48;100002.58;112461;232;41316;-60
2024/04/26 09:50:22;;;;;;;;;10.00;9.00;;;;;19.38;32.94;100002.94;112390;235;170046;-59
2024/04/26 09:53:04;;;;;;;;;8.25;7.75;;;;;18.84;33.54;100004.31;112746;232;40335;-59
2024/04/26 09:55:40;;;;;;;;;11.00;9.00;;;;;18.54;34.21;100006.89;112771;232;40888;-57
2024/04/26 09:58:23;;;;;;;;;9.00;8.00;;;;;18.09;34.27;100007.13;112338;232;169704;-57
2024/04/26 10:01:04;;;;;;;;;12.00;10.00;;;;;17.93;34.33;100002.14;112508;232;39033;-57
2024/04/26 10:03:46;;;;;;;;;8.00;7.00;;;;;18.06;35.10;99996.80;112393;236;170144;-60
2024/04/26 10:06:22;;;;;;;;;9.00;8.00;;;;;18.56;35.39;99998.20;112515;232;39922;-59
2024/04/26 10:09:09;;;;;;;;;8.00;6.00;;;;;18.83;34.71;100001.67;112360;232;184523;-60
2024/04/26 10:11:54;;;;;;;;;7.00;6.00;;;;;19.00;34.19;99994.85;112474;232;40254;-60
2024/04/26 10:14:33;;;;;;;;;6.00;5.00;;;;;19.22;34.22;99986.36;112424;235;169680;-58
2024/04/26 10:17:21;;;;;;;;;5.00;5.00;;;;;19.53;33.86;99994.20;112828;231;40491;-57
2024/04/26 10:20:04;;;;;;;;;6.00;6.00;;;;;19.61;33.04;99992.02;112689;232;169699;-60
2024/04/26 10:22:43;;;;;;;;;4.33;3.33;;;;;19.64;32.37;99987.69;112589;232;40943;-61
2024/04/26 10:25:28;;;;;;;;;6.00;5.67;;;;;19.38;32.55;99989.41;112518;232;40548;-59
2024/04/26 10:28:13;;;;;;;;;5.00;4.00;;;;;18.97;32.12;99987.46;112366;232;169536;-58
2024/04/26 10:30:53;;;;;;;;;7.00;5.00;;;;;18.64;32.56;99985.64;112499;232;39907;-59
2024/04/26 10:33:38;;;;;;;;;6.00;5.00;;;;;18.87;33.21;99984.60;112402;232;169656;-57
2024/04/26 10:36:18;;;;;;;;;6.00;5.00;;;;;19.08;32.42;99977.75;112560;236;41591;-57
2024/04/26 10:39:00;;;;;;;;;4.00;3.00;;;;;19.29;32.52;99985.40;112360;232;169474;-57
2024/04/26 10:41:35;;;;;;;;;5.00;4.00;;;;;19.07;32.07;99990.77;112517;236;40222;-57
2024/04/26 10:44:11;;;;;;;;;3.25;3.00;;;;;18.72;31.91;99992.42;112319;232;169064;-59
2024/04/26 10:46:55;;;;;;;;;4.00;4.00;;;;;18.37;32.40;99988.59;112434;232;41345;-59
2024/04/26 10:49:30;;;;;;;;;6.00;5.00;;;;;18.39;32.45;99983.27;112514;232;40752;-57
2024/04/26 10:52:05;;;;;;;;;4.00;4.00;;;;;18.43;32.89;99980.48;112596;231;169540;-57
2024/04/26 10:54:44;;;;;;;;;4.00;4.00;;;;;18.62;32.72;99983.09;112812;232;41114;-60
2024/04/26 10:57:36;;;;;;;;;4.00;4.00;;;;;18.71;32.92;99976.05;112501;235;169491;-59
2024/04/26 11:00:12;;;;;;;;;5.00;4.00;;;;;18.64;33.09;99973.22;112570;232;41102;-59
2024/04/26 11:02:49;;;;;;;;;4.00;4.00;;;;;19.00;33.00;99972.88;112345;236;169319;-59
2024/04/26 11:05:40;;;;;;;;;4.00;3.00;;;;;19.18;32.18;99969.02;112520;236;40756;-58
2024/04/26 11:08:27;;;;;;;;;3.00;3.00;;;;;19.18;31.73;99975.90;112358;235;169625;-59
2024/04/26 11:11:13;;;;;;;;;5.00;4.00;;;;;18.58;30.78;99979.52;112834;231;39701;-58
2024/04/26 11:13:53;;;;;;;;;4.00;4.00;;;;;18.41;31.83;99977.05;112852;235;41580;-57
2024/04/26 11:16:35;;;;;;;;;3.67;3.00;;;;;18.23;31.43;99978.60;112516;233;39693;-56
2024/04/26 11:19:11;;;;;;;;;3.25;3.00;;;;;17.80;32.44;99978.13;112850;232;40479;-59
2024/04/26 11:21:51;;;;;;;;;4.00;4.00;;;;;17.77;32.90;99979.07;112694;231;169394;-59
2024/04/26 11:24:28;;;;;;;;;4.00;4.00;;;;;17.84;32.82;99979.23;112879;235;40027;-58
2024/04/26 11:27:08;;;;;;;;;5.00;4.00;;;;;17.99;33.12;99979.33;112488;232;169521;-59
2024/04/26 11:29:44;;;;;;;;;6.00;4.00;;;;;18.28;32.74;99974.73;112481;232;41041;-56
2024/04/26 11:32:22;;;;;;;;;4.00;3.67;;;;;18.18;31.58;99978.55;112375;232;169605;-57
2024/04/26 11:34:57;;;;;;;;;3.00;3.00;;;;;17.97;32.31;99981.10;112744;235;39796;-58
2024/04/26 11:37:35;;;;;;;;;4.50;4.50;;;;;17.59;32.07;99989.10;112793;232;41647;-58
2024/04/26 11:40:10;;;;;;;;;4.00;3.75;;;;;17.69;32.46;99983.63;112368;232;169497;-56
2024/04/26 11:42:52;;;;;;;;;4.00;3.00;;;;;18.09;32.63;99986.55;112431;232;39966;-56
2024/04/26 11:45:31;;;;;;;;;4.00;4.00;;;;;18.19;32.90;99984.38;112303;232;170109;-59
2024/04/26 11:48:07;;;;;;;;;3.50;3.00;;;;;18.25;32.48;99985.41;112483;236;40904;-59
2024/04/26 11:50:47;;;;;;;;;4.00;4.00;;;;;18.33;32.49;99984.70;112427;231;170716;-60
2024/04/26 11:53:25;;;;;;;;;4.00;4.00;;;;;18.35;32.61;99988.84;112766;232;40405;-59
2024/04/26 11:56:05;;;;;;;;;3.00;3.00;;;;;18.24;32.01;99992.55;112662;232;169672;-56
2024/04/26 11:58:43;;;;;;;;;4.00;3.00;;;;;17.91;32.03;99990.79;112465;236;40814;-59
2024/04/26 12:01:25;;;;;;;;;3.00;2.00;;;;;17.79;31.48;99990.48;112515;232;39998;-60
2024/04/26 12:03:59;;;;;;;;;4.00;4.00;;;;;17.88;31.44;99988.17;112343;232;170375;-58
2024/04/26 12:06:35;;;;;;;;;3.00;3.00;;;;;18.05;31.44;99984.73;112507;232;39943;-58
2024/04/26 12:09:09;;;;;;;;;5.00;4.50;;;;;18.35;30.97;99985.98;112376;232;169399;-57
2024/04/26 12:11:46;;;;;;;;;5.00;4.00;;;;;18.51;31.06;99994.31;112488;232;40630;-57